createdAt,value
2018-05-03T00:00:20.108Z,99275.03
2018-05-03T00:02:46.054Z,99274.15
2018-05-03T00:05:12.011Z,99278.45
2018-05-03T00:07:37.984Z,99272.70
2018-05-03T00:10:03.912Z,99261.03
2018-05-03T00:12:29.854Z,99268.94
2018-05-03T00:14:55.808Z,99272.71
2018-05-03T00:17:21.760Z,99284.11
2018-05-03T00:19:47.727Z,99279.14
2018-05-03T00:22:13.704Z,99287.22
2018-05-03T00:24:39.671Z,99283.37
2018-05-03T00:27:05.605Z,99285.52
2018-05-03T00:29:31.577Z,99293.95
2018-05-03T00:31:57.560Z,99295.48
2018-05-03T00:34:23.519Z,99295.86
2018-05-03T00:36:49.471Z,99297.69
2018-05-03T00:39:15.405Z,99297.69
2018-05-03T00:41:41.333Z,99302.04
2018-05-03T00:44:07.299Z,99311.81
2018-05-03T00:46:33.264Z,99314.25
2018-05-03T00:48:59.321Z,99322.33
2018-05-03T00:51:25.275Z,99320.84
2018-05-03T00:53:51.225Z,99321.48
2018-05-03T00:56:17.174Z,99334.65
2018-05-03T00:58:44.192Z,99330.41
2018-05-03T01:01:10.186Z,99325.33
2018-05-03T01:03:36.130Z,99324.59
2018-05-03T01:06:02.064Z,99318.77
2018-05-03T01:08:28.035Z,99310.00
2018-05-03T01:10:53.962Z,99316.91
2018-05-03T01:13:19.906Z,99324.59
2018-05-03T01:15:45.856Z,99328.95
2018-05-03T01:18:11.792Z,99327.95
2018-05-03T01:20:37.735Z,99318.66
2018-05-03T01:23:03.707Z,99310.36
2018-05-03T01:25:29.660Z,99311.46
2018-05-03T01:27:55.628Z,99319.80
2018-05-03T01:30:21.561Z,99337.58
2018-05-03T01:32:47.499Z,99324.69
2018-05-03T01:35:13.452Z,99318.86
2018-05-03T01:37:39.412Z,99320.36
2018-05-03T01:40:05.354Z,99335.40
2018-05-03T01:42:31.298Z,99352.66
2018-05-03T01:44:57.275Z,99352.69
2018-05-03T01:47:23.215Z,99329.72
2018-05-03T01:49:49.195Z,99306.66
2018-05-03T01:52:15.139Z,99319.05
2018-05-03T01:54:41.124Z,99320.41
2018-05-03T01:57:07.085Z,99323.88
2018-05-03T01:59:33.056Z,99336.19
2018-05-03T02:01:59.008Z,99326.45
2018-05-03T02:04:24.997Z,99325.16
2018-05-03T02:06:50.977Z,99310.59
2018-05-03T02:09:16.965Z,99307.84
2018-05-03T02:11:42.904Z,99310.95
2018-05-03T02:14:08.862Z,99311.41
2018-05-03T02:16:34.810Z,99323.44
2018-05-03T02:19:00.783Z,99335.19
2018-05-03T02:21:26.709Z,99335.27
2018-05-03T02:23:52.652Z,99326.34
2018-05-03T02:26:18.577Z,99308.61
2018-05-03T02:28:44.536Z,99309.74
2018-05-03T02:31:10.520Z,99327.60
2018-05-03T02:33:36.475Z,99321.49
2018-05-03T02:36:02.409Z,99306.64
2018-05-03T02:38:28.376Z,99299.22
2018-05-03T02:40:54.391Z,99312.64
2018-05-03T02:43:20.319Z,99319.31
2018-05-03T02:45:46.267Z,99323.16
2018-05-03T02:48:12.210Z,99333.70
2018-05-03T02:50:38.150Z,99338.12
2018-05-03T02:53:04.105Z,99339.52
2018-05-03T02:55:30.077Z,99311.98
2018-05-03T02:57:56.009Z,99284.41
2018-05-03T03:00:21.979Z,99291.67
2018-05-03T03:02:47.957Z,99314.73
2018-05-03T03:05:13.908Z,99318.48
2018-05-03T03:07:39.865Z,99302.09
2018-05-03T03:10:05.809Z,99294.95
2018-05-03T03:12:31.787Z,99286.88
2018-05-03T03:14:57.774Z,99288.77
2018-05-03T03:17:23.744Z,99287.83
2018-05-03T03:19:49.674Z,99290.98
2018-05-03T03:22:15.641Z,99285.36
2018-05-03T03:24:41.703Z,99278.20
2018-05-03T03:27:07.645Z,99278.20
2018-05-03T03:29:33.592Z,99283.58
2018-05-03T03:31:59.590Z,99279.47
2018-05-03T03:34:25.536Z,99281.19
2018-05-03T03:36:51.503Z,99268.48
2018-05-03T03:39:17.542Z,99268.13
2018-05-03T03:41:43.479Z,99263.25
2018-05-03T03:44:09.418Z,99259.15
2018-05-03T03:46:35.370Z,99262.97
2018-05-03T03:49:01.327Z,99254.10
2018-05-03T03:51:27.321Z,99252.37
2018-05-03T03:53:53.270Z,99256.94
2018-05-03T03:56:21.320Z,99251.02
2018-05-03T03:58:47.832Z,99258.30
2018-05-03T04:01:14.878Z,99258.01
2018-05-03T04:03:40.823Z,99246.06
2018-05-03T04:06:06.775Z,99244.77
2018-05-03T04:08:32.731Z,99239.58
2018-05-03T04:10:58.692Z,99240.09
2018-05-03T04:15:59.550Z,99247.71
2018-05-03T04:18:25.495Z,99256.59
2018-05-03T04:20:51.454Z,99262.79
2018-05-03T04:23:17.436Z,99254.96
2018-05-03T04:25:43.406Z,99264.41
2018-05-03T04:28:09.396Z,99266.05
2018-05-03T04:30:35.340Z,99265.02
2018-05-03T04:33:01.313Z,99268.45
2018-05-03T04:35:27.335Z,99271.36
2018-05-03T04:37:53.311Z,99276.77
2018-05-03T04:40:19.299Z,99279.73
2018-05-03T04:42:45.248Z,99277.50
2018-05-03T04:45:11.222Z,99279.22
2018-05-03T04:47:37.170Z,99281.06
2018-05-03T04:50:03.119Z,99284.78
2018-05-03T04:52:29.075Z,99285.48
2018-05-03T04:54:55.045Z,99304.35
2018-05-03T04:57:21.002Z,99311.48
2018-05-03T04:59:46.966Z,99322.91
2018-05-03T05:02:12.932Z,99320.28
2018-05-03T05:04:38.896Z,99314.41
2018-05-03T05:07:04.909Z,99310.28
2018-05-03T05:09:30.863Z,99320.69
2018-05-03T05:11:56.804Z,99337.69
2018-05-03T05:14:22.742Z,99339.20
2018-05-03T05:16:48.724Z,99358.58
2018-05-03T05:19:14.702Z,99365.33
2018-05-03T05:21:40.679Z,99373.27
2018-05-03T05:24:06.612Z,99386.37
2018-05-03T05:26:32.608Z,99392.75
2018-05-03T05:28:58.583Z,99397.70
2018-05-03T05:31:24.557Z,99400.50
2018-05-03T05:33:50.506Z,99406.84
2018-05-03T05:36:16.436Z,99417.97
2018-05-03T05:38:42.440Z,99413.92
2018-05-03T05:41:08.370Z,99418.78
2018-05-03T05:43:34.308Z,99421.18
2018-05-03T05:46:00.241Z,99427.69
2018-05-03T05:48:26.187Z,99444.33
2018-05-03T05:50:52.137Z,99449.11
2018-05-03T05:53:18.133Z,99455.77
2018-05-03T05:55:44.102Z,99452.58
2018-05-03T05:58:10.068Z,99451.45
2018-05-03T06:00:36.257Z,99461.13
2018-05-03T06:03:02.371Z,99473.03
2018-05-03T06:05:28.373Z,99481.22
2018-05-03T06:07:54.502Z,99488.67
2018-05-03T06:10:20.483Z,99489.44
2018-05-03T06:12:46.435Z,99503.25
2018-05-03T06:15:12.388Z,99507.77
2018-05-03T06:17:38.357Z,99519.04
2018-05-03T06:20:04.293Z,99525.78
2018-05-03T06:22:30.248Z,99524.25
2018-05-03T06:24:56.208Z,99527.00
2018-05-03T06:27:22.176Z,99521.84
2018-05-03T06:29:48.154Z,99520.26
2018-05-03T06:32:14.173Z,99527.37
2018-05-03T06:34:40.125Z,99532.00
2018-05-03T06:37:06.061Z,99535.75
2018-05-03T06:39:32.065Z,99534.97
2018-05-03T06:41:58.050Z,99532.86
2018-05-03T06:44:24.024Z,99532.57
2018-05-03T06:46:49.986Z,99535.52
2018-05-03T06:49:15.961Z,99534.77
2018-05-03T06:51:41.949Z,99536.75
2018-05-03T06:54:07.934Z,99531.92
2018-05-03T06:56:33.885Z,99544.83
2018-05-03T06:58:59.957Z,99548.92
2018-05-03T07:01:25.892Z,99550.65
2018-05-03T07:03:51.867Z,99558.36
2018-05-03T07:06:17.814Z,99561.20
2018-05-03T07:08:43.760Z,99560.84
2018-05-03T07:11:09.734Z,99564.36
2018-05-03T07:13:35.721Z,99558.33
2018-05-03T07:16:01.739Z,99565.55
2018-05-03T07:18:27.719Z,99562.05
2018-05-03T07:20:53.676Z,99568.75
2018-05-03T07:23:19.644Z,99569.73
2018-05-03T07:25:45.603Z,99569.31
2018-05-03T07:28:11.546Z,99575.63
2018-05-03T07:30:37.548Z,99576.17
2018-05-03T07:33:03.480Z,99574.34
2018-05-03T07:35:29.458Z,99584.19
2018-05-03T07:37:55.408Z,99584.08
2018-05-03T07:40:21.424Z,99589.08
2018-05-03T07:42:47.426Z,99592.33
2018-05-03T07:45:13.412Z,99590.27
2018-05-03T07:47:39.385Z,99589.45
2018-05-03T07:50:05.339Z,99595.20
2018-05-03T07:52:31.326Z,99594.82
2018-05-03T07:54:57.276Z,99598.13
2018-05-03T07:57:23.253Z,99594.92
2018-05-03T07:59:49.200Z,99605.37
2018-05-03T08:02:15.162Z,99601.70
2018-05-03T08:04:41.127Z,99604.30
2018-05-03T08:07:07.153Z,99605.97
2018-05-03T08:09:33.417Z,99604.14
2018-05-03T08:11:59.381Z,99606.93
2018-05-03T08:14:25.312Z,99615.58
2018-05-03T08:16:51.298Z,99620.58
2018-05-03T08:19:17.253Z,99624.69
2018-05-03T08:21:43.228Z,99625.38
2018-05-03T08:24:09.184Z,99631.80
2018-05-03T08:26:35.200Z,99641.22
2018-05-03T08:29:01.435Z,99644.73
2018-05-03T08:31:27.409Z,99635.60
2018-05-03T08:33:53.371Z,99643.52
2018-05-03T08:36:19.321Z,99648.15
2018-05-03T08:38:45.294Z,99651.14
2018-05-03T08:41:11.252Z,99654.08
2018-05-03T08:43:37.226Z,99658.52
2018-05-03T08:46:03.193Z,99659.28
2018-05-03T08:48:29.158Z,99659.14
2018-05-03T08:50:55.121Z,99655.23
2018-05-03T08:53:21.063Z,99661.05
2018-05-03T08:55:47.023Z,99664.42
2018-05-03T08:58:12.976Z,99667.78
2018-05-03T09:00:38.945Z,99667.36
2018-05-03T09:03:04.883Z,99664.06
2018-05-03T09:05:30.817Z,99667.78
2018-05-03T09:07:56.812Z,99666.16
2018-05-03T09:10:22.750Z,99671.23
2018-05-03T09:12:48.710Z,99669.42
2018-05-03T09:15:14.668Z,99670.36
2018-05-03T09:17:40.650Z,99676.60
2018-05-03T09:20:06.583Z,99677.91
2018-05-03T09:22:32.597Z,99683.66
2018-05-03T09:24:58.520Z,99690.72
2018-05-03T09:27:24.495Z,99692.84
2018-05-03T09:29:50.467Z,99695.41
2018-05-03T09:32:16.427Z,99706.80
2018-05-03T09:34:42.384Z,99711.35
2018-05-03T09:37:08.375Z,99717.66
2018-05-03T09:39:34.309Z,99715.20
2018-05-03T09:42:00.259Z,99718.20
2018-05-03T09:44:26.267Z,99720.83
2018-05-03T09:46:52.200Z,99713.82
2018-05-03T09:49:18.152Z,99716.22
2018-05-03T09:51:44.108Z,99713.67
2018-05-03T09:54:10.115Z,99716.62
2018-05-03T09:56:36.073Z,99721.83
2018-05-03T09:59:02.041Z,99720.91
2018-05-03T10:01:27.989Z,99729.85
2018-05-03T10:03:53.954Z,99729.80
2018-05-03T10:06:19.905Z,99733.84
2018-05-03T10:08:45.837Z,99733.67
2018-05-03T10:11:11.786Z,99737.97
2018-05-03T10:13:37.797Z,99743.02
2018-05-03T10:16:03.792Z,99744.69
2018-05-03T10:18:29.747Z,99747.20
2018-05-03T10:20:55.693Z,99753.11
2018-05-03T10:23:21.659Z,99751.84
2018-05-03T10:25:47.593Z,99752.35
2018-05-03T10:28:13.537Z,99757.08
2018-05-03T10:30:39.473Z,99760.07
2018-05-03T10:33:05.530Z,99760.49
2018-05-03T10:35:31.544Z,99754.14
2018-05-03T10:37:57.483Z,99755.80
2018-05-03T10:40:23.462Z,99754.47
2018-05-03T10:42:49.437Z,99757.34
2018-05-03T10:45:15.543Z,99753.28
2018-05-03T10:47:41.530Z,99752.78
2018-05-03T10:50:07.500Z,99757.89
2018-05-03T10:52:33.490Z,99760.81
2018-05-03T10:54:59.439Z,99762.50
2018-05-03T10:57:25.510Z,99761.27
2018-05-03T10:59:51.439Z,99760.41
2018-05-03T11:02:17.441Z,99761.39
2018-05-03T11:04:43.372Z,99758.80
2018-05-03T11:07:09.307Z,99759.14
2018-05-03T11:09:35.261Z,99755.66
2018-05-03T11:12:01.213Z,99750.06
2018-05-03T11:14:27.226Z,99747.86
2018-05-03T11:16:53.167Z,99747.31
2018-05-03T11:19:19.145Z,99752.44
2018-05-03T11:21:45.119Z,99757.47
2018-05-03T11:24:11.079Z,99764.14
2018-05-03T11:26:37.040Z,99759.50
2018-05-03T11:29:03.052Z,99767.96
2018-05-03T11:31:29.087Z,99764.99
2018-05-03T11:33:55.075Z,99762.53
2018-05-03T11:36:20.990Z,99767.91
2018-05-03T11:38:46.952Z,99764.36
2018-05-03T11:41:13.018Z,99765.05
2018-05-03T11:43:39.033Z,99765.05
2018-05-03T11:46:04.957Z,99760.16
2018-05-03T11:48:30.973Z,99767.02
2018-05-03T11:50:57.058Z,99767.94
2018-05-03T11:53:23.055Z,99768.23
2018-05-03T11:55:49.081Z,99770.98
2018-05-03T11:58:15.055Z,99770.59
2018-05-03T12:00:41.026Z,99768.70
2018-05-03T12:03:07.068Z,99771.64
2018-05-03T12:05:33.049Z,99775.36
2018-05-03T12:07:59.141Z,99774.55
2018-05-03T12:10:26.321Z,99774.52
2018-05-03T12:12:52.729Z,99778.75
2018-05-03T12:15:18.668Z,99775.26
2018-05-03T12:17:44.743Z,99771.86
2018-05-03T12:20:11.823Z,99770.98
2018-05-03T12:22:37.827Z,99769.28
2018-05-03T12:25:04.119Z,99775.09
2018-05-03T12:27:30.067Z,99775.55
2018-05-03T12:29:56.173Z,99767.31
2018-05-03T12:32:22.490Z,99766.47
2018-05-03T12:34:48.876Z,99757.58
2018-05-03T12:37:15.144Z,99754.85
2018-05-03T12:39:41.159Z,99755.31
2018-05-03T12:42:07.185Z,99755.06
2018-05-03T12:44:33.124Z,99758.10
2018-05-03T12:46:59.073Z,99760.05
2018-05-03T12:49:26.273Z,99759.14
2018-05-03T12:51:52.265Z,99757.33
2018-05-03T12:54:18.248Z,99761.12
2018-05-03T12:56:45.093Z,99758.39
2018-05-03T12:59:11.080Z,99761.12
2018-05-03T13:01:37.057Z,99759.27
2018-05-03T13:04:03.424Z,99754.42
2018-05-03T13:06:29.411Z,99756.69
2018-05-03T13:08:55.909Z,99755.95
2018-05-03T13:11:21.929Z,99758.98
2018-05-03T13:13:47.978Z,99753.11
2018-05-03T13:16:15.417Z,99754.31
2018-05-03T13:18:41.440Z,99752.19
2018-05-03T13:21:07.382Z,99751.45
2018-05-03T13:23:33.336Z,99751.05
2018-05-03T13:25:59.299Z,99746.27
2018-05-03T13:28:25.234Z,99747.58
2018-05-03T13:30:51.198Z,99753.39
2018-05-03T13:33:17.188Z,99744.39
2018-05-03T13:35:43.247Z,99739.36
2018-05-03T13:38:09.174Z,99737.66
2018-05-03T13:40:35.199Z,99738.05
2018-05-03T13:43:01.180Z,99745.52
2018-05-03T13:45:27.141Z,99734.23
2018-05-03T13:47:53.106Z,99736.78
2018-05-03T13:50:19.076Z,99738.90
2018-05-03T13:52:45.058Z,99738.83
2018-05-03T13:55:11.018Z,99746.09
2018-05-03T13:57:36.996Z,99744.31
2018-05-03T14:00:02.977Z,99746.55
2018-05-03T14:02:28.945Z,99741.84
2018-05-03T14:04:54.914Z,99749.10
2018-05-03T14:07:20.969Z,99742.37
2018-05-03T14:09:46.918Z,99748.33
2018-05-03T14:12:12.887Z,99745.78
2018-05-03T14:14:38.868Z,99747.90
2018-05-03T14:17:04.823Z,99746.55
2018-05-03T14:19:30.776Z,99747.71
2018-05-03T14:21:56.786Z,99747.64
2018-05-03T14:24:22.732Z,99743.73
2018-05-03T14:26:49.113Z,99739.52
2018-05-03T14:29:15.073Z,99747.95
2018-05-03T14:31:41.058Z,99744.89
2018-05-03T14:34:07.030Z,99742.85
2018-05-03T14:36:33.313Z,99736.38
2018-05-03T14:38:59.284Z,99743.58
2018-05-03T14:41:25.257Z,99753.00
2018-05-03T14:43:51.242Z,99746.52
2018-05-03T14:46:17.176Z,99745.99
2018-05-03T14:48:43.160Z,99741.82
2018-05-03T14:51:10.174Z,99736.31
2018-05-03T14:53:36.126Z,99744.39
2018-05-03T14:56:02.084Z,99744.92
2018-05-03T14:58:28.082Z,99744.77
2018-05-03T15:00:54.213Z,99747.27
2018-05-03T15:03:20.226Z,99749.25
2018-05-03T15:05:46.200Z,99750.80
2018-05-03T15:08:12.315Z,99746.59
2018-05-03T15:10:38.338Z,99749.91
2018-05-03T15:13:04.249Z,99757.21
2018-05-03T15:15:30.245Z,99753.89
2018-05-03T15:17:56.196Z,99753.34
2018-05-03T15:20:22.193Z,99752.61
2018-05-03T15:22:48.263Z,99758.10
2018-05-03T15:25:14.228Z,99760.64
2018-05-03T15:27:40.177Z,99758.21
2018-05-03T15:30:06.165Z,99761.92
2018-05-03T15:32:32.142Z,99758.70
2018-05-03T15:34:58.082Z,99758.32
2018-05-03T15:37:24.090Z,99766.78
2018-05-03T15:39:50.043Z,99766.78
2018-05-03T15:42:16.011Z,99765.89
2018-05-03T15:44:42.072Z,99766.28
2018-05-03T15:47:08.021Z,99760.23
2018-05-03T15:49:33.995Z,99762.39
2018-05-03T15:51:59.967Z,99759.80
2018-05-03T15:54:25.977Z,99759.80
2018-05-03T15:56:51.979Z,99761.58
2018-05-03T15:59:17.910Z,99764.94
2018-05-03T16:01:43.848Z,99762.70
2018-05-03T16:04:09.811Z,99760.58
2018-05-03T16:06:35.838Z,99764.90
2018-05-03T16:09:01.841Z,99765.33
2018-05-03T16:11:27.865Z,99763.70
2018-05-03T16:13:53.815Z,99764.90
2018-05-03T16:16:19.788Z,99765.78
2018-05-03T16:18:46.100Z,99765.36
2018-05-03T16:21:12.088Z,99762.35
2018-05-03T16:23:38.039Z,99761.89
2018-05-03T16:26:03.981Z,99758.95
2018-05-03T16:28:29.934Z,99762.23
2018-05-03T16:30:55.884Z,99763.20
2018-05-03T16:33:21.868Z,99761.96
2018-05-03T16:35:47.845Z,99765.95
2018-05-03T16:38:13.792Z,99758.50
2018-05-03T16:40:39.754Z,99767.78
2018-05-03T16:43:05.828Z,99760.09
2018-05-03T16:45:31.790Z,99764.37
2018-05-03T16:47:57.830Z,99760.27
2018-05-03T16:50:24.744Z,99771.95
2018-05-03T16:52:50.700Z,99769.72
2018-05-03T16:55:16.703Z,99774.36
2018-05-03T16:57:42.759Z,99773.94
2018-05-03T17:00:08.761Z,99774.75
2018-05-03T17:02:34.764Z,99778.25
2018-05-03T17:05:00.730Z,99778.25
2018-05-03T17:07:26.677Z,99783.50
2018-05-03T17:09:52.658Z,99787.32
2018-05-03T17:12:18.733Z,99790.89
2018-05-03T17:14:45.041Z,99793.30
2018-05-03T17:17:11.068Z,99796.34
2018-05-03T17:19:37.152Z,99795.04
2018-05-03T17:22:03.107Z,99804.95
2018-05-03T17:24:29.073Z,99804.74
2018-05-03T17:26:55.029Z,99808.28
2018-05-03T17:29:21.005Z,99814.12
2018-05-03T17:31:46.947Z,99821.39
2018-05-03T17:34:13.052Z,99825.22
2018-05-03T17:36:39.114Z,99833.46
2018-05-03T17:39:05.173Z,99830.59
2018-05-03T17:41:31.123Z,99842.33
2018-05-03T17:43:57.108Z,99849.33
2018-05-03T17:46:23.072Z,99854.33
2018-05-03T17:48:49.032Z,99853.97
2018-05-03T17:51:15.064Z,99853.51
2018-05-03T17:53:41.012Z,99853.73
2018-05-03T17:56:07.003Z,99855.47
2018-05-03T17:58:33.009Z,99857.95
2018-05-03T18:00:59.052Z,99866.99
2018-05-03T18:03:25.022Z,99868.62
2018-05-03T18:05:51.068Z,99867.93
2018-05-03T18:08:17.091Z,99876.03
2018-05-03T18:10:43.099Z,99873.42
2018-05-03T18:13:09.109Z,99876.27
2018-05-03T18:15:35.089Z,99875.69
2018-05-03T18:18:01.057Z,99886.37
2018-05-03T18:20:27.038Z,99879.52
2018-05-03T18:22:53.052Z,99887.22
2018-05-03T18:25:19.005Z,99891.95
2018-05-03T18:27:45.009Z,99899.94
2018-05-03T18:30:11.654Z,99896.84
2018-05-03T18:32:37.611Z,99901.05
2018-05-03T18:35:03.622Z,99903.66
2018-05-03T18:37:29.626Z,99908.80
2018-05-03T18:39:55.637Z,99911.31
2018-05-03T18:42:21.660Z,99915.53
2018-05-03T18:44:47.620Z,99922.84
2018-05-03T18:47:13.584Z,99925.27
2018-05-03T18:49:39.632Z,99929.09
2018-05-03T18:52:05.604Z,99931.61
2018-05-03T18:54:31.611Z,99935.55
2018-05-03T18:56:57.619Z,99938.13
2018-05-03T18:59:23.603Z,99948.78
2018-05-03T19:01:49.635Z,99945.33
2018-05-03T19:04:15.640Z,99956.88
2018-05-03T19:06:41.641Z,99960.79
2018-05-03T19:09:07.678Z,99964.56
2018-05-03T19:11:33.671Z,99976.16
2018-05-03T19:13:59.611Z,99988.96
2018-05-03T19:16:25.577Z,99984.46
2018-05-03T19:18:51.540Z,99988.27
2018-05-03T19:21:17.545Z,99998.62
2018-05-03T19:23:43.529Z,100001.42
2018-05-03T19:26:09.538Z,100005.64
2018-05-03T19:28:35.524Z,100003.95
2018-05-03T19:31:01.520Z,100012.07
2018-05-03T19:33:27.451Z,100009.41
2018-05-03T19:35:53.406Z,100010.57
2018-05-03T19:38:19.382Z,100014.83
2018-05-03T19:40:45.364Z,100017.83
2018-05-03T19:43:11.445Z,100008.92
2018-05-03T19:45:37.412Z,100016.52
2018-05-03T19:48:03.424Z,100018.75
2018-05-03T19:50:29.410Z,100022.58
2018-05-03T19:52:55.499Z,100027.65
2018-05-03T19:55:21.621Z,100020.34
2018-05-03T19:57:47.516Z,100025.52
2018-05-03T20:00:13.501Z,100029.80
2018-05-03T20:02:39.456Z,100032.83
2018-05-03T20:05:05.415Z,100027.77
2018-05-03T20:07:31.440Z,100028.16
2018-05-03T20:09:58.513Z,100026.52
2018-05-03T20:12:24.522Z,100020.20
2018-05-03T20:14:50.518Z,100024.41
2018-05-03T20:17:16.519Z,100028.77
2018-05-03T20:19:42.584Z,100029.36
2018-05-03T20:22:09.630Z,100029.73
2018-05-03T20:24:35.649Z,100032.30
2018-05-03T20:27:01.597Z,100027.79
2018-05-03T20:29:27.602Z,100031.27
2018-05-03T20:31:55.739Z,100029.69
2018-05-03T20:34:21.720Z,100032.93
2018-05-03T20:36:47.688Z,100028.81
2018-05-03T20:39:13.770Z,100027.81
2018-05-03T20:41:39.721Z,100029.67
2018-05-03T20:44:05.714Z,100039.45
2018-05-03T20:46:31.664Z,100040.55
2018-05-03T20:48:57.654Z,100043.07
2018-05-03T20:51:23.623Z,100043.84
2018-05-03T20:53:49.603Z,100051.92
2018-05-03T20:56:15.590Z,100054.37
2018-05-03T20:58:41.580Z,100056.69
2018-05-03T21:01:07.563Z,100067.97
2018-05-03T21:03:33.518Z,100066.89
2018-05-03T21:05:59.484Z,100079.98
2018-05-03T21:08:25.445Z,100077.02
2018-05-03T21:10:51.403Z,100089.91
2018-05-03T21:13:17.347Z,100101.09
2018-05-03T21:15:43.303Z,100096.97
2018-05-03T21:18:09.230Z,100102.47
2018-05-03T21:20:35.201Z,100115.53
2018-05-03T21:23:01.171Z,100105.45
2018-05-03T21:25:27.149Z,100118.73
2018-05-03T21:27:53.103Z,100121.00
2018-05-03T21:30:22.700Z,100134.89
2018-05-03T21:32:48.644Z,100144.94
2018-05-03T21:35:14.588Z,100137.05
2018-05-03T21:37:40.538Z,100153.98
2018-05-03T21:40:06.499Z,100165.11
2018-05-03T21:42:32.433Z,100161.77
2018-05-03T21:44:58.373Z,100161.86
2018-05-03T21:47:24.337Z,100160.16
2018-05-03T21:49:50.322Z,100154.03
2018-05-03T21:52:16.316Z,100173.72
2018-05-03T21:54:42.269Z,100166.14
2018-05-03T21:57:08.219Z,100172.63
2018-05-03T21:59:34.165Z,100172.92
2018-05-03T22:02:00.093Z,100178.98
2018-05-03T22:04:26.017Z,100190.52
2018-05-03T22:06:51.970Z,100192.42
2018-05-03T22:09:17.934Z,100205.45
2018-05-03T22:11:43.887Z,100190.00
2018-05-03T22:14:09.844Z,100189.13
2018-05-03T22:16:35.799Z,100191.81
2018-05-03T22:19:01.747Z,100196.44
2018-05-03T22:21:27.693Z,100200.18
2018-05-03T22:23:53.629Z,100204.91
2018-05-03T22:26:19.592Z,100205.19
2018-05-03T22:28:45.521Z,100208.91
2018-05-03T22:31:11.479Z,100208.02
2018-05-03T22:33:37.443Z,100210.47
2018-05-03T22:36:03.418Z,100208.38
2018-05-03T22:38:29.399Z,100215.41
2018-05-03T22:40:55.333Z,100216.27
2018-05-03T22:43:21.305Z,100226.25
2018-05-03T22:45:47.313Z,100232.94
2018-05-03T22:48:13.274Z,100239.50
2018-05-03T22:50:39.234Z,100238.80
2018-05-03T22:53:05.216Z,100237.03
2018-05-03T22:55:31.169Z,100239.48
2018-05-03T22:57:57.146Z,100246.31
2018-05-03T23:00:23.081Z,100247.61
2018-05-03T23:02:49.021Z,100244.92
2018-05-03T23:05:15.027Z,100254.34
2018-05-03T23:07:40.992Z,100258.98
2018-05-03T23:10:06.951Z,100262.70
2018-05-03T23:12:32.897Z,100263.66
2018-05-03T23:14:58.889Z,100262.30
2018-05-03T23:17:24.841Z,100261.00
2018-05-03T23:19:50.798Z,100257.65
2018-05-03T23:22:16.760Z,100246.94
2018-05-03T23:24:42.773Z,100258.30
2018-05-03T23:27:08.692Z,100257.14
2018-05-03T23:29:34.643Z,100275.29
2018-05-03T23:32:00.634Z,100266.80
2018-05-03T23:34:26.603Z,100279.08
2018-05-03T23:36:52.575Z,100275.70
2018-05-03T23:39:18.603Z,100277.03
2018-05-03T23:41:44.577Z,100275.77
2018-05-03T23:44:10.532Z,100282.88
2018-05-03T23:46:36.489Z,100281.23
2018-05-03T23:49:02.468Z,100279.94
2018-05-03T23:51:28.393Z,100281.25
2018-05-03T23:53:54.361Z,100279.17
2018-05-03T23:56:20.301Z,100271.97
2018-05-03T23:58:46.265Z,100274.50
